Time;durP1;ratioP1;P1;durP2;ratioP2;P2;SDS_P1;SDS_P2;PMS_P1;PMS_P2;Temp;Humidity;BMP_temperature;BMP_pressure;BME280_temperature;BME280_humidity;BME280_pressure;Samples;Min_cycle;Max_cycle;Signal;HPM_P1;HPM_P2
2022/07/16 00:05:59;;;;;;;5.13;0.88;;;15.30;94.00;;;;;;10234984;28;20074;-91
2022/07/16 00:11:01;;;;;;;4.05;0.82;;;15.10;94.50;;;;;;10288045;28;20094;-91
2022/07/16 00:16:03;;;;;;;9.60;0.90;;;15.10;94.40;;;;;;10263345;28;20046;-90
2022/07/16 00:21:05;;;;;;;1.45;0.70;;;15.00;95.10;;;;;;10281372;28;20054;-92
2022/07/16 00:26:11;;;;;;;1.92;0.77;;;14.90;94.80;;;;;;10287233;28;20769;-92
2022/07/16 00:31:39;;;;;;;1.48;0.60;;;14.90;95.10;;;;;;9994983;28;20057;-91
2022/07/16 00:37:29;;;;;;;4.37;0.50;;;14.80;95.90;;;;;;9879154;28;20052;-91
2022/07/16 00:43:05;;;;;;;3.75;0.77;;;14.80;96.00;;;;;;9887984;28;20070;-91
2022/07/16 00:48:25;;;;;;;2.83;0.60;;;14.80;96.00;;;;;;9882784;28;20524;-91
2022/07/16 00:53:30;;;;;;;3.53;0.80;;;14.70;96.20;;;;;;10084478;28;20137;-91
2022/07/16 00:58:32;;;;;;;3.72;0.90;;;14.60;96.50;;;;;;10153265;28;20058;-91
2022/07/16 01:03:38;;;;;;;2.72;0.85;;;14.50;97.40;;;;;;10203999;28;20054;-90
2022/07/16 01:09:03;;;;;;;2.05;0.88;;;14.50;97.30;;;;;;9957761;28;20039;-91
2022/07/16 01:14:35;;;;;;;3.50;0.90;;;14.30;98.40;;;;;;9869117;28;20047;-91
2022/07/16 01:20:07;;;;;;;1.90;0.82;;;14.40;98.80;;;;;;9937343;28;20207;-92
2022/07/16 01:25:58;;;;;;;7.53;0.80;;;14.30;98.90;;;;;;9988137;28;20093;-91
2022/07/16 01:31:05;;;;;;;4.18;0.80;;;14.10;99.10;;;;;;10040473;28;20065;-91
2022/07/16 01:36:26;;;;;;;2.17;0.85;;;14.10;99.40;;;;;;9992722;28;20045;-92
2022/07/16 01:41:56;;;;;;;3.30;0.75;;;13.90;99.80;;;;;;10049804;28;20053;-91
2022/07/16 01:47:01;;;;;;;0.80;0.70;;;13.90;99.90;;;;;;9985794;28;20656;-91
2022/07/16 01:52:27;;;;;;;1.20;0.63;;;13.90;99.90;;;;;;9777425;28;20064;-92
2022/07/16 01:58:14;;;;;;;2.55;0.60;;;13.80;99.90;;;;;;9911120;28;20151;-91
2022/07/16 02:03:26;;;;;;;2.50;0.85;;;13.80;99.90;;;;;;10013780;28;20490;-91
2022/07/16 02:08:32;;;;;;;2.65;0.80;;;13.70;99.90;;;;;;10218029;28;20512;-92
2022/07/16 02:13:34;;;;;;;1.83;0.90;;;13.70;99.90;;;;;;10274153;28;20043;-92
2022/07/16 02:18:38;;;;;;;2.25;0.85;;;13.60;99.90;;;;;;10296315;28;20527;-92
2022/07/16 02:23:40;;;;;;;2.92;1.00;;;13.70;99.90;;;;;;10260074;28;20502;-92
2022/07/16 02:28:42;;;;;;;1.80;1.42;;;13.60;99.90;;;;;;10236984;28;20109;-92
2022/07/16 02:33:44;;;;;;;1.55;1.05;;;13.50;99.90;;;;;;10240639;28;20629;-92
2022/07/16 02:38:47;;;;;;;2.42;1.23;;;13.40;99.90;;;;;;10225350;28;20046;-93
2022/07/16 02:43:48;;;;;;;3.08;0.88;;;13.20;99.90;;;;;;10242246;28;20046;-93
2022/07/16 02:48:50;;;;;;;3.10;0.88;;;13.10;99.90;;;;;;10267531;28;20094;-92
2022/07/16 02:53:52;;;;;;;1.85;0.80;;;13.10;99.90;;;;;;10271772;28;20047;-93
2022/07/16 02:58:55;;;;;;;1.95;0.88;;;13.00;99.90;;;;;;10137716;28;20078;-92
2022/07/16 03:03:59;;;;;;;3.03;0.90;;;13.10;99.90;;;;;;10284975;28;20042;-92
2022/07/16 03:09:02;;;;;;;3.00;0.85;;;13.00;99.90;;;;;;10150161;28;20422;-92
2022/07/16 03:14:05;;;;;;;1.15;0.88;;;13.00;99.90;;;;;;10216673;28;20045;-92
2022/07/16 03:19:07;;;;;;;4.78;0.75;;;12.90;99.90;;;;;;10119800;28;20058;-92
2022/07/16 03:24:10;;;;;;;1.48;0.80;;;12.90;99.90;;;;;;10268493;28;20043;-92
2022/07/16 03:29:12;;;;;;;1.35;0.70;;;12.80;99.90;;;;;;10196705;28;20050;-92
2022/07/16 03:34:15;;;;;;;1.40;0.73;;;12.70;99.90;;;;;;10293780;28;20029;-89
2022/07/16 03:39:16;;;;;;;4.00;1.27;;;12.80;99.90;;;;;;10273983;28;20038;-89
2022/07/16 03:44:18;;;;;;;5.32;0.93;;;12.60;99.90;;;;;;10288265;28;20076;-89
2022/07/16 03:49:20;;;;;;;4.28;1.02;;;12.50;99.90;;;;;;10299320;28;20138;-90
2022/07/16 03:54:22;;;;;;;1.35;0.85;;;12.60;99.90;;;;;;10298988;28;20441;-89
2022/07/16 03:59:24;;;;;;;3.38;0.95;;;12.50;99.90;;;;;;10282522;28;20121;-89
2022/07/16 04:04:25;;;;;;;5.55;0.90;;;12.50;99.90;;;;;;10301502;28;20478;-89
2022/07/16 04:09:27;;;;;;;1.48;1.25;;;12.60;99.90;;;;;;10287306;28;20054;-88
2022/07/16 04:14:29;;;;;;;3.22;0.70;;;12.70;99.90;;;;;;10280596;28;20022;-88
2022/07/16 04:19:31;;;;;;;4.03;0.85;;;12.70;99.90;;;;;;10273862;28;20394;-89
2022/07/16 04:24:33;;;;;;;1.20;0.80;;;12.70;99.90;;;;;;10311803;28;20057;-89
2022/07/16 04:29:34;;;;;;;1.00;0.70;;;12.80;99.90;;;;;;10296173;28;20046;-88
2022/07/16 04:34:37;;;;;;;2.95;0.82;;;12.80;99.90;;;;;;10293959;28;20054;-88
2022/07/16 04:39:38;;;;;;;2.40;0.90;;;12.80;99.90;;;;;;10303819;28;20105;-88
2022/07/16 04:44:40;;;;;;;1.00;0.60;;;13.00;99.90;;;;;;10287608;28;20050;-88
2022/07/16 04:49:42;;;;;;;4.00;0.90;;;13.00;99.90;;;;;;10311220;28;20129;-88
2022/07/16 04:54:44;;;;;;;0.63;0.50;;;13.10;99.90;;;;;;10294142;28;20527;-88
2022/07/16 04:59:46;;;;;;;4.28;0.98;;;13.20;99.90;;;;;;10295085;28;20165;-88
2022/07/16 05:04:48;;;;;;;2.30;0.88;;;13.30;99.90;;;;;;10292778;28;20042;-88
2022/07/16 05:09:50;;;;;;;0.98;0.80;;;13.50;99.90;;;;;;10292691;28;20077;-88
2022/07/16 05:14:51;;;;;;;2.33;0.65;;;13.50;99.90;;;;;;10311168;28;20062;-89
2022/07/16 05:19:53;;;;;;;3.22;0.80;;;13.70;99.90;;;;;;10283715;28;20086;-89
2022/07/16 05:24:55;;;;;;;4.00;1.00;;;13.80;99.90;;;;;;10305707;28;20042;-89
2022/07/16 05:29:57;;;;;;;2.28;1.33;;;13.90;99.90;;;;;;10291441;28;20102;-89
2022/07/16 05:34:59;;;;;;;3.35;0.80;;;14.00;99.90;;;;;;10288150;28;20065;-89
2022/07/16 05:40:02;;;;;;;2.70;0.82;;;14.20;99.90;;;;;;10302995;28;20057;-89
2022/07/16 05:45:04;;;;;;;2.92;0.80;;;14.30;99.90;;;;;;10287208;28;20130;-89
2022/07/16 05:50:07;;;;;;;2.15;0.70;;;14.40;99.90;;;;;;10305110;28;20105;-89
2022/07/16 05:55:09;;;;;;;1.40;0.70;;;14.50;99.90;;;;;;10290703;28;20111;-89
2022/07/16 06:00:12;;;;;;;3.92;0.80;;;14.50;99.90;;;;;;10279200;28;20428;-89
2022/07/16 06:05:13;;;;;;;5.50;1.00;;;14.70;99.90;;;;;;10300264;28;20050;-89
2022/07/16 06:10:15;;;;;;;1.77;0.95;;;14.70;99.90;;;;;;10318367;28;20106;-89
2022/07/16 06:15:18;;;;;;;2.53;0.90;;;14.80;99.90;;;;;;10297734;28;20082;-89
2022/07/16 06:20:19;;;;;;;8.43;0.80;;;14.90;99.90;;;;;;10293495;28;20485;-88
2022/07/16 06:25:21;;;;;;;2.20;1.00;;;14.90;99.90;;;;;;10269887;28;20390;-89
2022/07/16 06:30:23;;;;;;;2.65;0.60;;;15.10;99.90;;;;;;10286585;28;20046;-88
2022/07/16 06:35:25;;;;;;;4.13;1.50;;;15.20;99.90;;;;;;10257993;28;20059;-89
2022/07/16 06:40:27;;;;;;;4.32;0.73;;;15.40;99.90;;;;;;10282576;28;20077;-89
2022/07/16 06:45:29;;;;;;;2.78;0.82;;;15.70;99.90;;;;;;10293567;28;20053;-88
2022/07/16 06:50:31;;;;;;;1.50;0.65;;;15.90;99.90;;;;;;10298753;28;20061;-88
2022/07/16 06:55:32;;;;;;;5.35;0.60;;;16.30;99.90;;;;;;10296764;28;20048;-88
2022/07/16 07:00:34;;;;;;;2.80;0.80;;;16.60;99.90;;;;;;10270212;28;20045;-89
2022/07/16 07:05:38;;;;;;;3.08;0.60;;;17.00;99.90;;;;;;10251191;28;20050;-90
2022/07/16 07:10:42;;;;;;;2.78;0.63;;;17.40;99.90;;;;;;10271088;28;20068;-90
2022/07/16 07:15:43;;;;;;;3.85;1.15;;;17.90;99.50;;;;;;10277173;28;20122;-88
2022/07/16 07:20:46;;;;;;;8.48;0.68;;;18.10;99.00;;;;;;10270048;28;20694;-89
2022/07/16 07:25:48;;;;;;;3.45;0.50;;;18.50;98.20;;;;;;10291232;28;20101;-89
2022/07/16 07:30:50;;;;;;;2.80;0.52;;;18.60;97.20;;;;;;10273507;28;20058;-89
2022/07/16 07:35:53;;;;;;;1.20;0.50;;;18.90;97.00;;;;;;10275756;28;20042;-89
2022/07/16 07:40:55;;;;;;;3.92;0.50;;;19.30;97.40;;;;;;10275113;28;20047;-90
2022/07/16 07:45:57;;;;;;;2.33;0.40;;;19.60;96.50;;;;;;10302475;28;20059;-89
2022/07/16 07:51:00;;;;;;;2.22;0.47;;;19.80;95.20;;;;;;10262622;28;20053;-88
2022/07/16 07:56:03;;;;;;;2.50;0.40;;;20.00;95.50;;;;;;10287574;28;20073;-89
2022/07/16 08:01:05;;;;;;;2.60;0.43;;;20.10;93.80;;;;;;10264626;28;20058;-89
2022/07/16 08:06:26;;;;;;;3.53;0.30;;;20.40;94.20;;;;;;10276809;28;20062;-90
2022/07/16 08:11:28;;;;;;;4.40;0.52;;;20.60;92.70;;;;;;10279513;28;20054;-89
2022/07/16 08:16:30;;;;;;;2.67;0.45;;;20.80;93.00;;;;;;10305890;28;20098;-90
2022/07/16 08:21:31;;;;;;;3.15;0.30;;;21.00;91.60;;;;;;10295485;28;20069;-90
2022/07/16 08:26:37;;;;;;;0.60;0.20;;;21.20;90.90;;;;;;10286850;28;20057;-90
2022/07/16 08:31:39;;;;;;;1.08;0.30;;;21.30;88.90;;;;;;10282571;28;20137;-90
2022/07/16 08:36:40;;;;;;;0.47;0.20;;;21.60;88.40;;;;;;10301636;28;20085;-93
2022/07/16 08:41:43;;;;;;;2.00;0.30;;;21.60;87.20;;;;;;10259655;28;20109;-88
2022/07/16 08:46:46;;;;;;;1.60;0.30;;;21.70;87.60;;;;;;10301246;28;20070;-93
2022/07/16 08:51:49;;;;;;;2.72;0.50;;;21.60;87.70;;;;;;10291490;28;20612;-93
2022/07/16 08:56:52;;;;;;;1.67;0.20;;;21.70;87.90;;;;;;10306415;28;20058;-93
2022/07/16 09:01:54;;;;;;;0.85;0.30;;;21.60;87.50;;;;;;10286023;28;20050;-91
2022/07/16 09:06:56;;;;;;;1.70;0.30;;;21.80;86.90;;;;;;10303070;28;20078;-90
2022/07/16 09:11:58;;;;;;;1.20;0.20;;;22.00;86.40;;;;;;10282356;28;20078;-91
2022/07/16 09:17:01;;;;;;;0.50;0.20;;;22.40;85.10;;;;;;10299904;28;20135;-89
2022/07/16 09:22:12;;;;;;;2.33;0.28;;;22.50;84.90;;;;;;10292094;28;20054;-89
2022/07/16 09:27:16;;;;;;;1.27;0.30;;;22.50;84.00;;;;;;10280550;28;20060;-85
2022/07/16 09:32:30;;;;;;;0.40;0.20;;;22.40;82.00;;;;;;10293605;28;20061;-87
2022/07/16 09:37:49;;;;;;;0.65;0.20;;;22.30;82.10;;;;;;10250898;28;20055;-85
2022/07/16 09:42:51;;;;;;;1.58;0.30;;;22.50;81.10;;;;;;10294502;28;20999;-85
2022/07/16 09:47:53;;;;;;;0.30;0.20;;;22.80;80.10;;;;;;10333423;28;20050;-86
2022/07/16 09:53:15;;;;;;;4.35;0.40;;;22.90;79.80;;;;;;10254417;28;20520;-87
2022/07/16 09:58:23;;;;;;;0.70;0.32;;;23.10;79.90;;;;;;10293561;28;20074;-89
2022/07/16 10:03:26;;;;;;;2.00;0.30;;;23.00;78.90;;;;;;10269304;28;20511;-89
2022/07/16 10:08:31;;;;;;;2.13;0.40;;;22.90;79.70;;;;;;10279832;28;20110;-89
2022/07/16 10:13:34;;;;;;;1.27;0.38;;;22.70;80.40;;;;;;10277365;28;20492;-89
2022/07/16 10:18:44;;;;;;;0.47;0.28;;;23.00;79.90;;;;;;10302447;28;20046;-89
2022/07/16 10:24:02;;;;;;;0.88;0.30;;;23.10;78.50;;;;;;10312598;28;20136;-89
2022/07/16 10:29:04;;;;;;;0.80;0.30;;;23.30;78.40;;;;;;10299429;28;20035;-89
2022/07/16 10:34:15;;;;;;;2.33;0.22;;;23.20;77.60;;;;;;10293223;28;20057;-89
2022/07/16 10:39:19;;;;;;;6.65;0.35;;;23.40;77.40;;;;;;10304907;28;20110;-88
2022/07/16 10:44:24;;;;;;;3.50;0.50;;;22.90;76.90;;;;;;10288646;28;20046;-89
2022/07/16 10:49:30;;;;;;;0.63;0.20;;;23.30;77.10;;;;;;10212491;28;20054;-90
2022/07/16 10:54:39;;;;;;;0.60;0.30;;;23.70;76.20;;;;;;10269396;28;20050;-89
2022/07/16 10:59:46;;;;;;;4.82;0.40;;;24.10;74.90;;;;;;10259543;28;20045;-90
2022/07/16 11:04:49;;;;;;;2.92;0.50;;;23.90;75.90;;;;;;10303763;28;20468;-89
2022/07/16 11:09:54;;;;;;;1.42;0.30;;;23.50;77.40;;;;;;10299377;28;20097;-90
2022/07/16 11:15:01;;;;;;;1.23;0.40;;;23.30;77.90;;;;;;10256261;28;20050;-89
2022/07/16 11:20:08;;;;;;;1.90;0.40;;;23.20;79.50;;;;;;10296294;28;20487;-90
2022/07/16 11:25:10;;;;;;;2.55;0.40;;;23.60;80.20;;;;;;10256795;28;20030;-91
2022/07/16 11:30:13;;;;;;;1.55;0.35;;;23.20;80.10;;;;;;10271337;28;20050;-90
2022/07/16 11:35:15;;;;;;;1.48;0.40;;;23.40;80.90;;;;;;10293190;28;20050;-90
2022/07/16 11:40:18;;;;;;;4.18;0.40;;;23.60;81.60;;;;;;10284772;28;20061;-90
2022/07/16 11:45:20;;;;;;;3.00;0.50;;;23.80;82.00;;;;;;10283536;28;20531;-91
2022/07/16 11:50:27;;;;;;;2.60;0.40;;;23.80;80.50;;;;;;10296587;28;20053;-90
2022/07/16 11:55:33;;;;;;;3.42;0.50;;;24.20;79.40;;;;;;10257418;28;20112;-90
2022/07/16 12:00:45;;;;;;;0.75;0.35;;;23.70;78.70;;;;;;10272564;28;20477;-90
2022/07/16 12:05:47;;;;;;;1.08;0.40;;;24.30;79.10;;;;;;10307585;28;20042;-90
2022/07/16 12:11:04;;;;;;;1.25;0.55;;;24.90;78.40;;;;;;10172263;28;20086;-90
2022/07/16 12:16:09;;;;;;;3.17;0.40;;;25.10;77.80;;;;;;10287997;28;20073;-90
2022/07/16 12:21:35;;;;;;;1.48;0.43;;;24.40;79.90;;;;;;10301516;28;20064;-90
2022/07/16 12:26:39;;;;;;;1.85;0.40;;;24.20;80.70;;;;;;10284181;28;20054;-89
2022/07/16 12:31:41;;;;;;;1.42;0.32;;;24.30;79.30;;;;;;10301541;28;20027;-90
2022/07/16 12:36:43;;;;;;;0.95;0.40;;;24.90;77.50;;;;;;10260308;28;20106;-90
2022/07/16 12:41:48;;;;;;;1.25;0.38;;;25.10;73.10;;;;;;10278529;28;20086;-91
2022/07/16 12:46:52;;;;;;;1.77;0.40;;;25.40;72.60;;;;;;10277799;28;20073;-91
2022/07/16 12:51:59;;;;;;;1.45;0.30;;;25.30;72.70;;;;;;10276052;28;20149;-91
2022/07/16 13:02:23;;;;;;;0.55;0.45;;;25.60;70.40;;;;;;10290653;28;20055;-91
2022/07/16 13:07:25;;;;;;;1.85;0.40;;;25.70;69.20;;;;;;10276101;28;20061;-91
2022/07/16 13:12:27;;;;;;;0.57;0.30;;;26.10;69.20;;;;;;10304296;28;20141;-90
2022/07/16 13:17:29;;;;;;;0.80;0.50;;;26.10;66.50;;;;;;10296905;28;20141;-92
2022/07/16 13:22:31;;;;;;;1.45;0.35;;;25.50;66.90;;;;;;10275012;28;20058;-89
2022/07/16 13:27:36;;;;;;;0.57;0.40;;;25.90;67.00;;;;;;10270529;28;20117;-90
2022/07/16 13:32:38;;;;;;;1.35;0.60;;;26.00;65.90;;;;;;10322663;28;20584;-93
2022/07/16 13:37:43;;;;;;;1.73;0.50;;;26.30;67.10;;;;;;10282581;28;20085;-89
2022/07/16 13:42:45;;;;;;;1.02;0.70;;;26.40;67.50;;;;;;10295013;28;20034;-89
2022/07/16 13:47:48;;;;;;;1.75;0.50;;;26.00;67.10;;;;;;10289138;28;20068;-89
2022/07/16 13:52:50;;;;;;;1.25;0.60;;;25.70;66.30;;;;;;10328162;28;20034;-90
2022/07/16 14:03:14;;;;;;;0.70;0.50;;;25.20;67.30;;;;;;10293876;28;20043;-88
2022/07/16 14:08:16;;;;;;;0.52;0.40;;;25.70;65.00;;;;;;10306862;28;20077;-85
2022/07/16 14:13:18;;;;;;;0.47;0.40;;;25.90;65.20;;;;;;10304467;28;20056;-87
2022/07/16 14:18:20;;;;;;;0.85;0.40;;;25.90;64.20;;;;;;10300361;28;20073;-88
2022/07/16 14:23:22;;;;;;;0.60;0.50;;;25.70;65.00;;;;;;10295695;28;20286;-89
2022/07/16 14:28:24;;;;;;;1.58;0.60;;;25.70;66.00;;;;;;10295910;28;20076;-89
2022/07/16 14:33:26;;;;;;;0.68;0.50;;;26.20;66.10;;;;;;10311452;28;20552;-89
2022/07/16 14:38:28;;;;;;;1.48;0.40;;;26.40;63.50;;;;;;10311044;28;20114;-89
2022/07/16 14:43:30;;;;;;;2.60;0.70;;;26.30;63.40;;;;;;10295776;28;20050;-89
2022/07/16 14:48:32;;;;;;;0.70;0.47;;;26.00;65.20;;;;;;10295721;28;20050;-89
2022/07/16 14:53:34;;;;;;;1.52;0.40;;;25.50;66.00;;;;;;10316600;28;20051;-88
2022/07/16 14:58:35;;;;;;;0.90;0.60;;;25.50;65.30;;;;;;10290423;28;20038;-89
2022/07/16 15:03:37;;;;;;;0.30;0.30;;;25.40;64.40;;;;;;10298053;28;20565;-89
2022/07/16 15:08:39;;;;;;;0.50;0.40;;;25.90;63.50;;;;;;10289980;28;20113;-89
2022/07/16 15:13:41;;;;;;;1.80;0.20;;;26.20;64.70;;;;;;10290091;28;20111;-88
2022/07/16 15:18:44;;;;;;;0.30;0.30;;;26.40;63.00;;;;;;10318529;28;20066;-90
2022/07/16 15:23:51;;;;;;;0.60;0.30;;;26.90;63.80;;;;;;10231716;28;20070;-90
2022/07/16 15:28:53;;;;;;;2.10;0.68;;;27.20;63.70;;;;;;10231954;28;20211;-90
2022/07/16 15:33:55;;;;;;;0.50;0.20;;;26.80;62.10;;;;;;10267319;28;20038;-87
2022/07/16 15:38:59;;;;;;;0.22;0.10;;;26.70;62.50;;;;;;10344504;28;20058;-88
2022/07/16 15:44:21;;;;;;;0.15;0.13;;;27.20;61.10;;;;;;10311310;28;20058;-89
2022/07/16 15:49:23;;;;;;;0.50;0.13;;;27.40;61.10;;;;;;10314321;28;20062;-88
2022/07/16 15:54:26;;;;;;;0.20;0.13;;;27.70;60.10;;;;;;10317864;28;20050;-88
2022/07/16 15:59:28;;;;;;;0.22;0.10;;;27.60;59.40;;;;;;10293246;28;20073;-89
2022/07/16 16:04:30;;;;;;;1.30;0.38;;;26.60;58.80;;;;;;10278140;28;20054;-88
2022/07/16 16:09:32;;;;;;;0.57;0.10;;;27.20;58.00;;;;;;10286386;28;20153;-88
2022/07/16 16:14:34;;;;;;;0.63;0.10;;;27.70;56.90;;;;;;10324311;28;20077;-88
2022/07/16 16:19:37;;;;;;;0.68;0.13;;;27.90;57.50;;;;;;10155805;28;20487;-91
2022/07/16 16:24:44;;;;;;;0.20;0.10;;;28.00;57.00;;;;;;10141431;28;20051;-91
2022/07/16 16:29:56;;;;;;;1.55;0.05;;;28.00;55.80;;;;;;10037612;28;20052;-91
2022/07/16 16:35:06;;;;;;;1.00;0.20;;;28.00;56.40;;;;;;10091891;28;20043;-90
2022/07/16 16:40:10;;;;;;;0.40;0.10;;;28.20;56.00;;;;;;10158113;28;20058;-90
2022/07/16 16:45:13;;;;;;;0.88;0.10;;;28.20;55.10;;;;;;10169336;28;20055;-90
2022/07/16 16:50:17;;;;;;;4.50;0.20;;;28.60;54.30;;;;;;10181591;28;20054;-90
2022/07/16 16:55:19;;;;;;;0.85;0.15;;;28.80;54.50;;;;;;10170829;28;20464;-90
2022/07/16 17:00:26;;;;;;;0.10;0.10;;;28.40;54.80;;;;;;10205303;28;20058;-90
2022/07/16 17:05:28;;;;;;;0.80;0.10;;;28.40;54.40;;;;;;10176625;28;20063;-90
2022/07/16 17:10:30;;;;;;;1.00;0.40;;;28.30;54.60;;;;;;10136534;28;20068;-90
2022/07/16 17:15:33;;;;;;;0.30;0.20;;;27.80;54.30;;;;;;10206851;28;20071;-91
2022/07/16 17:20:36;;;;;;;0.30;0.10;;;27.90;53.80;;;;;;10205375;28;20131;-91
2022/07/16 17:25:42;;;;;;;0.40;0.20;;;28.10;53.60;;;;;;10185193;28;20051;-91
2022/07/16 17:30:45;;;;;;;1.15;0.20;;;28.10;53.10;;;;;;10228280;28;20117;-89
2022/07/16 17:35:49;;;;;;;0.68;0.20;;;28.40;53.00;;;;;;10224793;28;20086;-89
2022/07/16 17:40:51;;;;;;;1.48;0.22;;;28.70;53.00;;;;;;10236107;28;20055;-90
2022/07/16 17:45:53;;;;;;;0.20;0.15;;;28.60;52.70;;;;;;10276562;28;20074;-90
2022/07/16 17:50:55;;;;;;;0.57;0.20;;;28.50;51.50;;;;;;10287903;28;20051;-89
2022/07/16 17:55:57;;;;;;;0.80;0.20;;;28.30;52.20;;;;;;10226943;28;20114;-89
2022/07/16 18:00:59;;;;;;;0.30;0.15;;;28.20;52.60;;;;;;10247946;28;20051;-89
2022/07/16 18:06:01;;;;;;;0.35;0.30;;;28.30;52.10;;;;;;10287813;28;20047;-89
2022/07/16 18:11:06;;;;;;;1.48;0.30;;;28.10;52.50;;;;;;10237083;28;20070;-90
2022/07/16 18:16:09;;;;;;;0.60;0.30;;;27.80;52.70;;;;;;10246657;28;20046;-89
2022/07/16 18:21:14;;;;;;;0.93;0.40;;;27.40;53.20;;;;;;10273420;28;20056;-89
2022/07/16 18:26:16;;;;;;;1.38;0.32;;;27.00;55.10;;;;;;10220373;28;20050;-89
2022/07/16 18:31:18;;;;;;;2.08;0.50;;;26.30;55.00;;;;;;10189915;28;20117;-90
2022/07/16 18:36:21;;;;;;;1.75;0.40;;;25.60;56.00;;;;;;10256021;28;20126;-90
2022/07/16 18:41:24;;;;;;;1.67;0.20;;;25.30;56.80;;;;;;10267595;28;20045;-90
2022/07/16 18:46:26;;;;;;;0.63;0.20;;;24.90;57.30;;;;;;10252506;28;20058;-90
2022/07/16 18:51:28;;;;;;;0.63;0.25;;;24.50;57.90;;;;;;10270090;28;20043;-88
2022/07/16 18:56:30;;;;;;;4.65;1.73;;;24.20;59.00;;;;;;10286637;28;20038;-89
2022/07/16 19:01:32;;;;;;;2.78;0.40;;;23.90;59.90;;;;;;10274123;28;20031;-88
2022/07/16 19:06:35;;;;;;;0.73;0.70;;;23.70;60.50;;;;;;10278026;28;20053;-89
2022/07/16 19:11:37;;;;;;;1.42;0.65;;;23.50;61.70;;;;;;10305471;28;20078;-89
2022/07/16 19:16:39;;;;;;;1.05;0.50;;;23.30;61.20;;;;;;10313272;28;20114;-88
2022/07/16 19:21:41;;;;;;;4.43;0.50;;;23.10;61.80;;;;;;10289173;28;20109;-89
2022/07/16 19:26:43;;;;;;;1.35;0.60;;;22.90;62.20;;;;;;10295549;28;20124;-88
2022/07/16 19:31:45;;;;;;;2.75;0.55;;;22.80;62.80;;;;;;10300102;28;20210;-89
2022/07/16 19:36:48;;;;;;;1.17;0.40;;;22.60;63.40;;;;;;10290887;28;20055;-89
2022/07/16 19:41:50;;;;;;;1.48;0.68;;;22.40;63.80;;;;;;10284433;28;20149;-89
2022/07/16 19:46:53;;;;;;;8.82;1.73;;;22.20;64.00;;;;;;10287098;28;20058;-89
2022/07/16 19:51:55;;;;;;;25.02;11.65;;;22.00;64.50;;;;;;10302814;28;20536;-89
2022/07/16 20:02:17;;;;;;;4.63;1.48;;;21.50;65.90;;;;;;10327071;28;20171;-90
2022/07/16 20:07:19;;;;;;;5.50;1.42;;;21.40;66.50;;;;;;10308589;28;20047;-89
2022/07/16 20:12:21;;;;;;;4.57;1.48;;;21.20;67.30;;;;;;10299315;28;20102;-89
2022/07/16 20:17:23;;;;;;;3.67;0.60;;;21.00;68.90;;;;;;10289628;28;20038;-89
2022/07/16 20:22:25;;;;;;;0.68;0.30;;;20.90;68.60;;;;;;10290349;28;20054;-89
2022/07/16 20:27:27;;;;;;;3.00;0.80;;;20.60;68.40;;;;;;10323327;28;20133;-89
2022/07/16 20:32:29;;;;;;;3.33;0.60;;;20.30;69.20;;;;;;10306043;28;20081;-89
2022/07/16 20:37:32;;;;;;;8.25;0.93;;;20.20;69.40;;;;;;10275555;28;20113;-89
2022/07/16 20:42:34;;;;;;;3.60;0.85;;;20.00;69.70;;;;;;10302310;28;20087;-89
2022/07/16 20:47:36;;;;;;;3.17;1.20;;;19.90;70.20;;;;;;10269297;28;20046;-89
2022/07/16 20:52:39;;;;;;;3.08;1.15;;;19.70;70.60;;;;;;10278183;28;20093;-89
2022/07/16 20:57:42;;;;;;;2.35;0.80;;;19.60;71.00;;;;;;10239279;28;20050;-89
2022/07/16 21:02:44;;;;;;;3.38;1.88;;;19.50;71.40;;;;;;10275879;28;20053;-89
2022/07/16 21:07:46;;;;;;;1.75;0.70;;;19.30;72.00;;;;;;10270256;28;20054;-89
2022/07/16 21:12:51;;;;;;;3.35;0.75;;;19.20;72.00;;;;;;10238218;28;20078;-89
2022/07/16 21:17:53;;;;;;;0.98;0.40;;;19.20;72.40;;;;;;10278837;28;20138;-89
2022/07/16 21:22:55;;;;;;;1.73;0.30;;;19.10;72.90;;;;;;10290914;28;20069;-89
2022/07/16 21:27:57;;;;;;;0.95;0.40;;;19.10;73.30;;;;;;10317809;28;20092;-89
2022/07/16 21:33:27;;;;;;;1.63;0.20;;;18.90;73.80;;;;;;10198554;28;20064;-90
2022/07/16 21:38:57;;;;;;;3.90;0.63;;;18.90;73.90;;;;;;10052382;28;20078;-90
2022/07/16 21:57:50;;;;;;;1.80;0.40;;;18.50;74.70;;;;;;9887527;28;20136;-91
2022/07/16 22:04:46;;;;;;;;;;;;;;;;;;;;;
2022/07/16 22:10:23;;;;;;;2.78;0.45;;;18.20;76.00;;;;;;9827769;29;20076;-89
2022/07/16 22:15:25;;;;;;;5.15;0.40;;;18.10;76.40;;;;;;9987391;29;20042;-90
2022/07/16 22:25:52;;;;;;;1.40;0.30;;;17.90;77.10;;;;;;10059941;29;20040;-88
2022/07/16 22:30:55;;;;;;;1.77;0.65;;;17.80;78.50;;;;;;10141006;28;20059;-89
2022/07/16 22:35:58;;;;;;;7.00;2.25;;;17.70;78.90;;;;;;10294348;28;20134;-90
2022/07/16 22:40:59;;;;;;;2.22;0.40;;;17.60;79.40;;;;;;10284673;28;20085;-89
2022/07/16 22:46:01;;;;;;;1.90;0.50;;;17.50;80.40;;;;;;10292148;28;20114;-90
2022/07/16 22:51:03;;;;;;;4.38;0.90;;;17.50;81.40;;;;;;10297399;28;20062;-90
2022/07/16 22:56:05;;;;;;;2.67;0.60;;;17.30;82.20;;;;;;10299245;28;20125;-89
2022/07/16 23:01:07;;;;;;;3.00;0.70;;;17.20;83.50;;;;;;10290499;28;20149;-89
2022/07/16 23:06:09;;;;;;;1.25;0.82;;;17.00;84.10;;;;;;10271168;28;20524;-90
2022/07/16 23:11:12;;;;;;;3.08;1.23;;;17.00;84.20;;;;;;10298209;28;20053;-89
2022/07/16 23:16:14;;;;;;;9.77;0.98;;;16.80;84.80;;;;;;10293765;28;20621;-89
2022/07/16 23:21:17;;;;;;;3.03;1.20;;;16.80;86.20;;;;;;10299221;28;20053;-89
2022/07/16 23:26:19;;;;;;;1.85;0.60;;;16.70;87.00;;;;;;10258675;28;20082;-88
2022/07/16 23:31:21;;;;;;;2.78;0.60;;;16.60;87.40;;;;;;10277861;28;20140;-88
2022/07/16 23:36:23;;;;;;;3.70;0.52;;;16.50;88.20;;;;;;10286383;28;20065;-89
2022/07/16 23:41:25;;;;;;;3.72;1.25;;;16.40;89.20;;;;;;10264638;28;20665;-90
2022/07/16 23:46:28;;;;;;;6.55;3.40;;;16.30;89.40;;;;;;10277279;28;20058;-89
2022/07/16 23:51:30;;;;;;;6.82;3.45;;;16.10;89.40;;;;;;10289297;28;20054;-89
2022/07/16 23:56:32;;;;;;;12.20;3.92;;;16.00;89.90;;;;;;10277498;28;20050;-89
